Time;durP1;ratioP1;P1;durP2;ratioP2;P2;SDS_P1;SDS_P2;PMS_P1;PMS_P2;Temp;Humidity;BMP_temperature;BMP_pressure;BME280_temperature;BME280_humidity;BME280_pressure;Samples;Min_cycle;Max_cycle;Signal;HPM_P1;HPM_P2
2022/04/07 00:00:04;;;;;;;3.93;2.90;;;;;;;8.64;100.00;98812.72;4999959;28;20439;-81
2022/04/07 00:02:29;;;;;;;3.33;2.10;;;;;;;8.59;100.00;98820.63;4981759;28;20212;-82
2022/04/07 00:04:55;;;;;;;6.10;2.70;;;;;;;9.07;100.00;98856.09;5002263;28;20847;-84
2022/04/07 00:07:21;;;;;;;4.93;2.77;;;;;;;8.93;100.00;98853.69;5000620;28;20256;-79
2022/04/07 00:09:46;;;;;;;3.77;2.40;;;;;;;9.01;100.00;98834.59;4996463;28;20212;-82
2022/04/07 00:12:11;;;;;;;5.80;2.97;;;;;;;9.10;100.00;98879.69;4997352;28;20970;-78
2022/04/07 00:14:37;;;;;;;3.20;2.27;;;;;;;8.88;100.00;98818.84;4987393;28;20231;-79
2022/04/07 00:17:03;;;;;;;4.37;2.63;;;;;;;9.22;100.00;98861.72;4977107;28;20189;-80
2022/04/07 00:19:29;;;;;;;4.10;2.23;;;;;;;9.19;100.00;98855.00;5000135;28;20584;-79
2022/04/07 00:21:57;;;;;;;3.17;1.97;;;;;;;9.16;100.00;98826.06;4997842;28;20459;-78
2022/04/07 00:24:23;;;;;;;4.27;2.30;;;;;;;8.14;100.00;98707.19;5002496;28;20627;-80
2022/04/07 00:26:48;;;;;;;3.93;2.40;;;;;;;8.51;100.00;98744.31;4984362;28;20459;-81
2022/04/07 00:29:14;;;;;;;6.60;2.47;;;;;;;8.87;100.00;98803.03;4997818;28;21287;-80
2022/04/07 00:31:40;;;;;;;3.57;2.03;;;;;;;8.63;100.00;98728.25;5000030;28;20239;-78
2022/04/07 00:34:10;;;;;;;3.80;1.70;;;;;;;9.07;100.00;98800.75;4991989;28;20223;-81
2022/04/07 00:36:35;;;;;;;4.60;2.53;;;;;;;8.40;100.00;98669.56;4970324;28;20950;-80
2022/04/07 00:39:01;;;;;;;5.27;2.30;;;;;;;9.30;100.00;98817.75;4985606;28;20439;-79
2022/04/07 00:41:27;;;;;;;6.67;2.67;;;;;;;9.17;100.00;98784.91;4992276;28;20244;-78
2022/04/07 00:43:53;;;;;;;6.33;1.83;;;;;;;9.12;100.00;98782.13;5000149;28;20470;-75
2022/04/07 00:46:19;;;;;;;5.03;1.77;;;;;;;9.01;100.00;98773.09;4997822;28;20444;-77
2022/04/07 00:48:45;;;;;;;6.60;2.33;;;;;;;8.64;100.00;98755.78;4981965;28;20205;-77
2022/04/07 00:51:17;;;;;;;4.43;1.80;;;;;;;8.85;100.00;98747.09;4998217;28;20934;-76
2022/04/07 00:53:46;;;;;;;7.37;2.50;;;;;;;8.66;100.00;98721.63;4997579;28;20470;-77
2022/04/07 00:56:15;;;;;;;4.93;2.17;;;;;;;9.02;100.00;98781.91;4982112;28;20449;-78
2022/04/07 00:58:45;;;;;;;6.83;2.73;;;;;;;8.85;100.00;98748.97;5000594;28;20570;-79
2022/04/07 01:01:10;;;;;;;3.03;1.50;;;;;;;8.98;100.00;98729.97;4999518;28;20630;-78
2022/04/07 01:03:36;;;;;;;4.83;1.70;;;;;;;8.41;100.00;98636.44;4995596;28;20475;-77
2022/04/07 01:06:08;;;;;;;5.87;1.70;;;;;;;9.15;100.00;98759.44;4998598;28;20189;-78
2022/04/07 01:08:33;;;;;;;6.03;1.77;;;;;;;9.01;100.00;98753.56;4999263;28;20216;-79
2022/04/07 01:10:59;;;;;;;5.07;1.97;;;;;;;8.65;100.00;98718.16;4995878;28;20455;-77
2022/04/07 01:13:45;;;;;;;4.83;1.90;;;;;;;8.44;100.00;98702.75;4985990;28;20758;-78
2022/04/07 01:16:11;;;;;;;3.10;1.47;;;;;;;9.12;100.00;98741.19;4999619;28;20227;-77
2022/04/07 01:21:14;;;;;;;2.30;1.10;;;;;;;9.09;100.00;98741.69;5009761;28;20990;-73
2022/04/07 01:23:45;;;;;;;3.30;1.37;;;;;;;8.87;100.00;98715.59;5014800;28;20443;-73
2022/04/07 01:26:10;;;;;;;4.90;1.33;;;;;;;8.89;100.00;98731.41;5016143;28;20454;-71
2022/04/07 01:28:36;;;;;;;4.30;1.63;;;;;;;8.58;100.00;98670.16;5013974;28;20464;-72
2022/04/07 01:31:01;;;;;;;3.47;1.27;;;;;;;8.91;100.00;98715.94;4996019;28;20219;-72
2022/04/07 01:33:28;;;;;;;5.47;1.83;;;;;;;8.74;100.00;98690.00;4996052;28;20185;-72
2022/04/07 01:35:54;;;;;;;4.57;1.50;;;;;;;8.80;100.00;98691.69;4997510;28;20218;-72
2022/04/07 01:38:20;;;;;;;4.40;1.70;;;;;;;8.57;100.00;98639.16;4996087;28;20935;-72
2022/04/07 01:40:47;;;;;;;5.23;2.20;;;;;;;8.61;100.00;98658.19;4992181;28;20221;-72
2022/04/07 01:43:15;;;;;;;4.90;1.50;;;;;;;8.79;100.00;98670.53;4994372;28;20262;-73
2022/04/07 01:45:42;;;;;;;4.23;1.60;;;;;;;8.34;100.00;98591.97;4994509;28;20448;-72
2022/04/07 01:48:08;;;;;;;6.30;1.90;;;;;;;8.98;100.00;98679.19;4994506;28;20569;-72
2022/04/07 01:50:35;;;;;;;6.70;1.93;;;;;;;9.14;100.00;98667.69;4995461;28;20479;-72
2022/04/07 01:53:01;;;;;;;3.93;1.87;;;;;;;8.55;100.00;98579.81;4994344;28;21084;-72
2022/04/07 01:55:27;;;;;;;2.40;1.37;;;;;;;9.17;100.00;98650.31;4993165;28;20448;-71
2022/04/07 01:57:54;;;;;;;4.00;1.73;;;;;;;8.92;100.00;98661.44;4996085;28;20194;-72
2022/04/07 02:00:19;;;;;;;8.27;2.87;;;;;;;8.72;100.00;98657.34;4995095;28;20467;-72
2022/04/07 02:02:48;;;;;;;5.53;1.90;;;;;;;8.27;100.00;98571.78;4994441;28;21093;-71
2022/04/07 02:05:15;;;;;;;4.63;1.63;;;;;;;8.59;100.00;98630.91;4995511;28;20251;-72
2022/04/07 02:07:42;;;;;;;6.00;1.97;;;;;;;8.69;100.00;98647.13;4977012;28;20451;-72
2022/04/07 02:10:09;;;;;;;4.53;2.03;;;;;;;8.71;100.00;98631.66;4995047;28;20503;-71
2022/04/07 02:12:36;;;;;;;5.90;1.53;;;;;;;8.07;100.00;98505.44;4993126;28;20957;-71
2022/04/07 02:15:01;;;;;;;6.57;1.63;;;;;;;8.69;100.00;98625.75;4979005;28;20446;-72
2022/04/07 02:17:27;;;;;;;4.47;1.50;;;;;;;9.03;100.00;98639.97;4997315;28;20890;-72
2022/04/07 02:19:57;;;;;;;6.73;1.97;;;;;;;9.07;100.00;98634.94;4993512;28;20296;-71
2022/04/07 02:22:23;;;;;;;3.07;1.37;;;;;;;9.30;100.00;98641.19;4995030;28;20718;-72
2022/04/07 02:24:49;;;;;;;2.93;1.07;;;;;;;9.04;100.00;98630.88;4979976;28;20448;-72
2022/04/07 02:27:16;;;;;;;4.27;1.90;;;;;;;8.43;100.00;98571.03;4996230;28;20451;-72
2022/04/07 02:29:42;;;;;;;6.63;1.90;;;;;;;8.72;100.00;98601.22;4976788;28;20598;-71
2022/04/07 02:32:08;;;;;;;5.90;1.80;;;;;;;8.76;100.00;98614.88;4996595;28;20996;-72
2022/04/07 02:34:34;;;;;;;6.57;2.20;;;;;;;8.70;100.00;98546.38;4976654;28;20440;-71
2022/04/07 02:36:59;;;;;;;4.30;1.83;;;;;;;8.98;100.00;98591.75;4994845;28;21886;-71
2022/04/07 02:39:25;;;;;;;6.93;2.00;;;;;;;8.62;100.00;98595.69;4995698;28;20209;-71
2022/04/07 02:41:50;;;;;;;4.40;1.80;;;;;;;7.75;100.00;98441.06;4993176;28;20197;-73
2022/04/07 02:44:18;;;;;;;8.90;2.20;;;;;;;8.60;100.00;98542.47;4995069;28;20292;-72
2022/04/07 02:46:43;;;;;;;5.93;1.80;;;;;;;8.27;100.00;98491.66;4994330;28;20227;-72
2022/04/07 02:49:09;;;;;;;9.93;1.90;;;;;;;8.37;100.00;98489.16;4994656;28;20562;-73
2022/04/07 02:51:34;;;;;;;4.83;1.80;;;;;;;8.26;100.00;98480.16;4994521;28;20774;-72
2022/04/07 02:54:00;;;;;;;8.17;1.70;;;;;;;8.67;100.00;98555.69;4995656;28;20185;-73
2022/04/07 02:56:27;;;;;;;4.57;1.87;;;;;;;8.63;100.00;98495.75;4994671;28;20218;-72
2022/04/07 02:58:52;;;;;;;11.53;2.60;;;;;;;8.42;100.00;98499.13;4996995;28;20193;-72
2022/04/07 03:01:18;;;;;;;9.87;2.47;;;;;;;8.57;100.00;98524.25;4995141;28;20482;-72
2022/04/07 03:03:44;;;;;;;7.37;2.00;;;;;;;8.19;100.00;98449.31;4995705;28;20647;-72
2022/04/07 03:06:09;;;;;;;5.53;2.43;;;;;;;7.72;100.00;98388.19;4995469;28;20192;-72
2022/04/07 03:08:35;;;;;;;12.27;3.00;;;;;;;8.30;100.00;98461.78;4997998;28;20201;-72
2022/04/07 03:11:01;;;;;;;8.23;2.33;;;;;;;8.88;100.00;98489.19;4991969;28;20239;-72
2022/04/07 03:13:26;;;;;;;8.37;2.23;;;;;;;8.30;100.00;98416.38;4997201;28;20184;-72
2022/04/07 03:15:51;;;;;;;8.03;2.23;;;;;;;8.69;100.00;98461.91;4996889;28;20449;-72
2022/04/07 03:18:17;;;;;;;7.23;2.67;;;;;;;8.43;100.00;98450.81;5001502;28;20259;-72
2022/04/07 03:20:42;;;;;;;9.50;2.53;;;;;;;8.12;100.00;98417.44;4994687;28;20216;-73
2022/04/07 03:23:08;;;;;;;10.27;2.97;;;;;;;8.30;100.00;98414.56;4999637;28;20188;-72
2022/04/07 03:25:33;;;;;;;14.73;3.23;;;;;;;8.04;100.00;98391.97;4998757;28;20251;-72
2022/04/07 03:27:58;;;;;;;6.60;2.20;;;;;;;8.34;100.00;98407.66;4994792;28;20212;-72
2022/04/07 03:30:24;;;;;;;7.37;2.20;;;;;;;8.21;100.00;98370.59;4999608;28;20427;-73
2022/04/07 03:32:49;;;;;;;15.47;2.67;;;;;;;7.77;100.00;98300.22;4999504;28;20196;-74
2022/04/07 03:35:15;;;;;;;11.13;2.30;;;;;;;7.75;100.00;98289.78;4997262;28;20189;-73
2022/04/07 03:37:40;;;;;;;7.47;2.80;;;;;;;8.48;100.00;98402.03;5000121;28;20197;-72
2022/04/07 03:40:06;;;;;;;9.37;1.97;;;;;;;8.87;100.00;98436.78;4998035;28;20220;-72
2022/04/07 03:42:31;;;;;;;11.30;2.73;;;;;;;8.08;100.00;98339.69;5002735;28;20200;-72
2022/04/07 03:44:57;;;;;;;8.73;2.60;;;;;;;8.22;100.00;98334.84;4997008;28;20181;-72
2022/04/07 03:47:22;;;;;;;6.30;1.83;;;;;;;8.76;100.00;98415.22;5001353;28;20551;-72
2022/04/07 03:49:48;;;;;;;9.13;2.60;;;;;;;8.20;100.00;98328.91;4998621;28;20221;-72
2022/04/07 03:52:15;;;;;;;11.30;3.03;;;;;;;8.62;100.00;98386.44;4999234;28;20727;-72
2022/04/07 03:54:40;;;;;;;8.20;2.33;;;;;;;8.60;100.00;98400.88;4997796;28;20189;-72
2022/04/07 03:57:06;;;;;;;8.80;2.30;;;;;;;8.76;100.00;98385.03;4997479;28;20815;-71
2022/04/07 03:59:37;;;;;;;10.90;2.30;;;;;;;8.50;100.00;98359.81;4999436;28;20295;-72
2022/04/07 04:02:05;;;;;;;9.33;2.20;;;;;;;8.58;100.00;98370.09;4997643;28;20276;-71
2022/04/07 04:04:30;;;;;;;12.10;3.53;;;;;;;8.40;100.00;98351.69;4999324;28;20439;-72
2022/04/07 04:06:56;;;;;;;11.50;3.57;;;;;;;8.71;100.00;98391.13;4997504;28;20457;-73
2022/04/07 04:09:21;;;;;;;7.27;2.43;;;;;;;8.63;100.00;98388.88;4993747;28;20221;-72
2022/04/07 04:11:46;;;;;;;8.80;1.70;;;;;;;8.37;100.00;98323.56;4991065;28;20196;-72
2022/04/07 04:14:12;;;;;;;7.73;2.37;;;;;;;8.68;100.00;98374.75;4996568;28;20719;-72
2022/04/07 04:16:37;;;;;;;6.43;2.03;;;;;;;8.00;100.00;98288.56;4997185;28;20220;-72
2022/04/07 04:19:03;;;;;;;10.77;2.63;;;;;;;8.36;100.00;98317.41;4997782;28;20658;-72
2022/04/07 04:21:28;;;;;;;6.97;2.40;;;;;;;8.40;100.00;98299.06;4998395;28;20960;-72
2022/04/07 04:23:53;;;;;;;6.13;2.30;;;;;;;8.55;100.00;98317.16;4999064;28;20189;-73
2022/04/07 04:26:19;;;;;;;6.73;1.90;;;;;;;8.80;100.00;98336.19;4996974;28;20715;-72
2022/04/07 04:28:44;;;;;;;7.40;2.13;;;;;;;8.52;100.00;98304.28;4997555;28;20221;-72
2022/04/07 04:31:09;;;;;;;5.90;1.53;;;;;;;8.32;100.00;98246.84;4994366;28;20188;-72
2022/04/07 04:33:35;;;;;;;13.97;2.93;;;;;;;8.51;100.00;98276.78;4995524;28;21221;-73
2022/04/07 04:36:00;;;;;;;8.27;2.23;;;;;;;8.54;100.00;98273.59;5000220;28;20671;-72
2022/04/07 04:38:26;;;;;;;13.07;2.70;;;;;;;8.90;100.00;98314.09;4996659;28;20204;-73
2022/04/07 04:40:51;;;;;;;10.37;2.40;;;;;;;8.81;100.00;98319.09;4998646;28;20299;-72
2022/04/07 04:43:16;;;;;;;8.00;2.30;;;;;;;8.71;100.00;98272.75;4998806;28;20719;-72
2022/04/07 04:45:42;;;;;;;9.40;2.17;;;;;;;8.77;100.00;98307.28;4999567;28;20181;-72
2022/04/07 04:48:07;;;;;;;10.50;2.50;;;;;;;8.62;100.00;98263.50;4997697;28;20235;-73
2022/04/07 04:50:34;;;;;;;11.20;2.90;;;;;;;8.79;100.00;98245.53;4996711;28;20209;-73
2022/04/07 04:52:59;;;;;;;11.80;2.40;;;;;;;8.74;100.00;98277.59;4998259;28;20208;-73
2022/04/07 04:55:25;;;;;;;8.90;2.60;;;;;;;8.30;100.00;98222.25;4997209;28;20444;-72
2022/04/07 04:57:50;;;;;;;12.23;2.97;;;;;;;8.70;100.00;98271.91;4999257;28;20200;-72
2022/04/07 05:00:16;;;;;;;11.93;2.90;;;;;;;7.55;100.00;98097.38;4999611;28;20209;-72
2022/04/07 05:02:41;;;;;;;11.73;2.53;;;;;;;8.29;100.00;98183.22;4997864;28;20185;-73
2022/04/07 05:05:08;;;;;;;13.20;2.80;;;;;;;8.11;100.00;98162.19;4996809;28;20192;-73
2022/04/07 05:07:33;;;;;;;12.13;3.10;;;;;;;8.12;100.00;98174.47;4992059;28;20224;-73
2022/04/07 05:09:59;;;;;;;17.73;2.90;;;;;;;8.69;100.00;98234.75;4994952;28;20533;-72
2022/04/07 05:12:26;;;;;;;11.17;2.87;;;;;;;8.46;100.00;98196.56;4975845;28;20223;-73
2022/04/07 05:14:52;;;;;;;9.47;2.70;;;;;;;7.77;100.00;98111.56;4997380;28;20628;-73
2022/04/07 05:17:21;;;;;;;12.60;2.90;;;;;;;8.15;100.00;98163.28;4999518;28;20440;-74
2022/04/07 05:19:46;;;;;;;11.10;3.20;;;;;;;7.95;100.00;98147.81;4997380;28;20209;-74
2022/04/07 05:22:12;;;;;;;11.80;3.43;;;;;;;8.47;100.00;98240.09;4997314;28;20448;-72
2022/04/07 05:24:38;;;;;;;13.50;2.50;;;;;;;8.42;100.00;98211.47;4994349;28;20192;-73
2022/04/07 05:27:03;;;;;;;8.10;2.33;;;;;;;8.75;100.00;98231.09;4980617;28;20704;-74
2022/04/07 05:29:29;;;;;;;14.50;2.53;;;;;;;8.15;100.00;98149.94;4996234;28;20220;-72
2022/04/07 05:31:54;;;;;;;7.53;2.53;;;;;;;8.39;100.00;98177.25;4993347;28;20280;-73
2022/04/07 05:34:20;;;;;;;8.10;2.10;;;;;;;8.01;100.00;98109.47;4996790;28;20193;-72
2022/04/07 05:36:45;;;;;;;13.23;3.30;;;;;;;8.63;100.00;98209.03;4995815;28;20193;-72
2022/04/07 05:39:12;;;;;;;9.87;2.77;;;;;;;8.74;100.00;98214.25;4997818;28;20593;-72
2022/04/07 05:41:38;;;;;;;12.17;3.10;;;;;;;8.51;100.00;98137.03;4998234;28;20218;-73
2022/04/07 05:44:04;;;;;;;11.40;3.20;;;;;;;8.40;100.00;98146.81;4997154;28;20444;-73
2022/04/07 05:46:29;;;;;;;11.33;2.60;;;;;;;8.11;100.00;98146.16;4995930;28;20193;-72
2022/04/07 05:48:55;;;;;;;15.20;2.90;;;;;;;8.39;100.00;98193.28;4984958;28;20201;-72
2022/04/07 05:51:20;;;;;;;10.10;2.17;;;;;;;7.91;100.00;98136.03;4995172;28;20655;-72
2022/04/07 05:53:45;;;;;;;7.57;1.63;;;;;;;8.16;100.00;98130.22;4993097;28;20247;-72
2022/04/07 05:56:11;;;;;;;9.37;1.90;;;;;;;7.96;100.00;98175.34;4996601;28;20268;-72
2022/04/07 05:58:36;;;;;;;7.20;1.67;;;;;;;7.71;100.00;98123.22;4988621;28;20185;-72
2022/04/07 06:01:02;;;;;;;4.90;1.40;;;;;;;8.26;100.00;98204.28;4990293;28;20196;-71
2022/04/07 06:03:27;;;;;;;4.40;1.37;;;;;;;7.50;100.00;98108.00;4969340;28;20203;-72
2022/04/07 06:05:53;;;;;;;5.63;1.13;;;;;;;8.02;100.00;98166.34;4976991;28;20193;-72
2022/04/07 06:08:19;;;;;;;2.50;0.97;;;;;;;7.98;100.00;98125.16;4989964;28;20213;-72
2022/04/07 06:10:44;;;;;;;6.07;1.20;;;;;;;7.86;100.00;98125.28;4990722;28;20271;-72
2022/04/07 06:13:11;;;;;;;3.23;1.13;;;;;;;8.13;100.00;98163.56;4973516;28;20449;-71
2022/04/07 06:15:39;;;;;;;3.03;1.30;;;;;;;8.03;100.00;98178.63;4991422;28;20208;-71
2022/04/07 06:18:05;;;;;;;2.60;1.00;;;;;;;7.96;100.00;98191.38;4991767;28;21080;-70
2022/04/07 06:20:31;;;;;;;1.47;0.77;;;;;;;7.82;100.00;98175.69;4994275;28;20468;-71
2022/04/07 06:22:56;;;;;;;5.47;1.10;;;;;;;7.67;100.00;98168.28;4995743;28;20795;-71
2022/04/07 06:25:22;;;;;;;2.93;0.93;;;;;;;7.29;100.00;98081.06;4994005;28;20192;-71
2022/04/07 06:27:47;;;;;;;3.00;0.90;;;;;;;7.83;100.00;98176.50;4993482;28;20189;-71
2022/04/07 06:30:15;;;;;;;11.70;1.30;;;;;;;7.82;100.00;98186.34;4992594;28;20225;-71
2022/04/07 06:32:41;;;;;;;4.33;1.00;;;;;;;7.40;100.00;98133.47;4987158;28;20773;-71
2022/04/07 06:35:08;;;;;;;1.60;0.90;;;;;;;7.64;100.00;98183.97;4991946;28;20479;-70
2022/04/07 06:37:55;;;;;;;4.00;1.10;;;;;;;7.49;100.00;98155.19;4986979;28;20818;-70
2022/04/07 06:40:23;;;;;;;4.57;1.27;;;;;;;7.58;100.00;98215.09;4990715;28;20521;-71
2022/04/07 06:42:50;;;;;;;7.20;1.27;;;;;;;7.42;100.00;98178.56;4991257;28;20538;-70
2022/04/07 06:45:15;;;;;;;3.07;1.03;;;;;;;7.36;100.00;98164.34;4994169;28;20570;-71
2022/04/07 06:47:42;;;;;;;1.77;0.80;;;;;;;7.26;100.00;98110.84;4992627;28;21898;-70
2022/04/07 06:50:12;;;;;;;2.03;0.80;;;;;;;7.51;100.00;98105.09;4989554;28;20219;-70
2022/04/07 06:52:39;;;;;;;3.53;1.40;;;;;;;7.05;100.00;98076.94;4993053;28;20958;-70
2022/04/07 06:55:05;;;;;;;2.50;1.23;;;;;;;6.86;100.00;98109.19;4990392;28;24583;-70
2022/04/07 06:57:30;;;;;;;4.33;1.17;;;;;;;7.09;100.00;98080.72;4990518;28;20934;-70
2022/04/07 06:59:56;;;;;;;4.00;0.90;;;;;;;6.60;100.00;98070.66;4972687;28;20488;-71
2022/04/07 07:02:22;;;;;;;4.20;1.20;;;;;;;6.75;100.00;98070.09;4990665;28;20197;-70
2022/04/07 07:04:47;;;;;;;2.07;0.90;;;;;;;7.05;100.00;98064.41;4994424;28;20526;-70
2022/04/07 07:07:13;;;;;;;2.13;1.03;;;;;;;6.71;100.00;98055.63;4993301;28;20652;-71
2022/04/07 07:09:38;;;;;;;2.40;0.80;;;;;;;6.70;100.00;98070.78;4990640;28;20244;-71
2022/04/07 07:12:05;;;;;;;2.13;0.80;;;;;;;6.83;100.00;98044.88;4995270;28;20308;-71
2022/04/07 07:14:31;;;;;;;1.50;0.90;;;;;;;6.46;100.00;98045.38;4986173;28;20444;-71
2022/04/07 07:16:56;;;;;;;3.40;0.73;;;;;;;6.42;100.00;98062.84;4995855;28;20193;-71
2022/04/07 07:19:28;;;;;;;1.80;0.80;;;;;;;6.25;100.00;98038.84;4994018;28;20227;-71
2022/04/07 07:21:53;;;;;;;2.50;0.90;;;;;;;6.61;100.00;98071.44;5029224;22;20334;-70
2022/04/07 07:24:19;;;;;;;4.97;1.27;;;;;;;6.29;100.00;98063.97;4986547;28;20968;-71
2022/04/07 07:26:45;;;;;;;4.53;0.90;;;;;;;6.44;100.00;98031.47;5013086;28;20184;-70
2022/04/07 07:29:10;;;;;;;1.00;0.70;;;;;;;6.52;100.00;98071.03;5011986;28;20211;-70
2022/04/07 07:43:58;;;;;;;0.87;0.50;;;;;;;6.25;100.00;97981.13;5090447;27;20579;-74
2022/04/07 07:46:24;;;;;;;1.73;0.70;;;;;;;6.46;100.00;97984.13;5070560;28;20465;-74
2022/04/07 07:51:17;;;;;;;5.23;1.40;;;;;;;6.50;100.00;98019.84;5009093;28;20902;-71
2022/04/07 07:53:45;;;;;;;0.90;0.67;;;;;;;6.45;100.00;97977.16;5008574;28;20439;-72
2022/04/07 07:56:10;;;;;;;1.80;0.97;;;;;;;6.42;100.00;97981.16;5013358;28;20188;-71
2022/04/07 07:58:36;;;;;;;3.63;0.80;;;;;;;6.71;100.00;97999.69;5013750;28;20440;-71
2022/04/07 08:01:02;;;;;;;1.93;0.70;;;;;;;6.76;100.00;97981.13;4993495;28;20299;-71
2022/04/07 08:03:28;;;;;;;1.73;1.10;;;;;;;6.72;100.00;97951.50;4991929;28;20202;-71
2022/04/07 08:05:53;;;;;;;1.80;0.87;;;;;;;6.38;100.00;97916.09;4990308;28;20551;-71
2022/04/07 08:08:18;;;;;;;2.60;0.80;;;;;;;6.98;100.00;97974.00;4991496;28;20185;-71
2022/04/07 08:10:44;;;;;;;1.73;0.63;;;;;;;7.01;100.00;97988.69;4990645;28;20581;-71
2022/04/07 08:13:09;;;;;;;1.70;0.80;;;;;;;7.06;100.00;97980.75;4987434;28;20278;-72
2022/04/07 08:15:35;;;;;;;3.10;0.90;;;;;;;7.16;100.00;97985.41;4992337;28;20259;-71
2022/04/07 08:18:00;;;;;;;1.43;0.90;;;;;;;6.64;100.00;97895.19;4995596;28;20193;-73
2022/04/07 08:20:26;;;;;;;1.50;0.77;;;;;;;7.15;100.00;97986.47;4992861;28;20204;-72
2022/04/07 08:22:51;;;;;;;0.73;0.70;;;;;;;6.76;100.00;97896.66;4995471;28;20647;-72
2022/04/07 08:25:17;;;;;;;1.83;0.70;;;;;;;7.18;100.00;97962.00;4995535;28;20189;-72
2022/04/07 08:27:42;;;;;;;1.93;0.70;;;;;;;7.20;100.00;97939.38;4987674;28;20197;-72
2022/04/07 08:30:08;;;;;;;2.30;0.70;;;;;;;7.30;100.00;97954.69;5035527;22;20249;-71
2022/04/07 08:32:34;;;;;;;4.10;0.70;;;;;;;7.12;100.00;97934.47;5065082;28;20202;-72
2022/04/07 08:35:00;;;;;;;1.83;0.70;;;;;;;6.90;100.00;97923.78;5057889;28;23600;-72
2022/04/07 08:37:26;;;;;;;2.30;0.70;;;;;;;7.20;100.00;97933.22;5056451;28;20187;-71
2022/04/07 08:39:51;;;;;;;2.80;0.70;;;;;;;7.24;100.00;97966.34;5055115;28;20468;-71
2022/04/07 08:42:22;;;;;;;2.40;0.73;;;;;;;7.26;100.00;97956.22;5044093;28;20176;-71
2022/04/07 08:44:48;;;;;;;2.00;0.90;;;;;;;7.17;100.00;97955.84;5034903;28;20184;-71
2022/04/07 08:47:17;;;;;;;2.07;0.80;;;;;;;7.35;100.00;97957.41;5029942;28;20433;-71
2022/04/07 08:49:42;;;;;;;1.57;0.93;;;;;;;7.20;100.00;97935.88;5036307;28;21099;-72
2022/04/07 08:52:08;;;;;;;1.90;0.93;;;;;;;7.39;100.00;97963.84;5030784;28;20469;-72
2022/04/07 08:54:34;;;;;;;1.40;0.90;;;;;;;7.48;100.00;97956.22;5025018;28;20446;-72
2022/04/07 08:57:01;;;;;;;1.60;1.00;;;;;;;7.56;100.00;97954.97;5032182;28;20706;-72
2022/04/07 08:59:26;;;;;;;6.60;1.20;;;;;;;7.36;100.00;97924.34;5011000;28;20273;-72
2022/04/07 09:02:00;;;;;;;2.00;0.90;;;;;;;7.31;100.00;97905.63;5027397;28;21049;-71
2022/04/07 09:04:29;;;;;;;2.70;0.80;;;;;;;7.27;100.00;97847.72;5029192;28;20186;-71
2022/04/07 09:06:55;;;;;;;2.27;0.93;;;;;;;7.89;100.00;97954.78;5028920;28;20454;-71
2022/04/07 09:09:22;;;;;;;3.23;1.00;;;;;;;7.79;100.00;97940.56;5020284;28;20446;-73
2022/04/07 09:11:54;;;;;;;0.70;0.60;;;;;;;7.95;100.00;97944.97;5023491;28;20477;-73
2022/04/07 09:14:19;;;;;;;2.63;0.90;;;;;;;7.05;100.00;97771.25;5032901;28;20430;-72
2022/04/07 09:16:44;;;;;;;4.63;0.90;;;;;;;7.06;100.00;97766.72;5031916;28;21135;-72
2022/04/07 09:19:10;;;;;;;3.10;1.20;;;;;;;8.11;100.00;97908.56;5028914;28;20272;-72
2022/04/07 09:21:36;;;;;;;3.63;1.30;;;;;;;7.98;100.00;97899.09;5029694;28;20838;-72
2022/04/07 09:24:05;;;;;;;4.00;1.10;;;;;;;8.40;100.00;97935.00;5030879;28;20645;-72
2022/04/07 09:26:34;;;;;;;8.20;1.30;;;;;;;7.96;100.00;97882.53;5033899;28;20437;-73
2022/04/07 09:29:06;;;;;;;2.30;1.00;;;;;;;7.77;100.00;97823.41;5034473;28;20461;-73
2022/04/07 09:31:37;;;;;;;6.53;1.63;;;;;;;8.50;100.00;97909.13;5035043;28;20486;-72
2022/04/07 09:34:03;;;;;;;1.80;1.13;;;;;;;8.14;100.00;97831.44;5033360;28;20426;-72
2022/04/07 09:36:28;;;;;;;11.83;1.90;;;;;;;8.49;100.00;97917.44;5034450;28;20441;-72
2022/04/07 09:38:55;;;;;;;8.43;1.57;;;;;;;8.54;100.00;97912.13;5035873;28;21111;-72
2022/04/07 09:41:23;;;;;;;5.60;1.23;;;;;;;8.06;100.00;97831.91;5030181;28;20192;-72
2022/04/07 09:43:57;;;;;;;7.27;1.10;;;;;;;8.31;100.00;97871.34;5019696;28;20910;-72
2022/04/07 09:46:24;;;;;;;18.00;1.87;;;;;;;8.25;100.00;97844.88;5024954;28;20768;-71
2022/04/07 09:49:05;;;;;;;8.20;1.80;;;;;;;8.80;100.00;97902.41;5027711;28;20454;-70
2022/04/07 09:51:38;;;;;;;7.93;1.50;;;;;;;8.49;100.00;97896.06;5033113;28;21006;-70
2022/04/07 09:54:09;;;;;;;3.83;1.10;;;;;;;8.75;100.00;97887.13;5027896;28;21030;-70
2022/04/07 09:56:35;;;;;;;3.17;1.10;;;;;;;8.83;100.00;97883.97;5033645;28;20437;-70
2022/04/07 09:59:00;;;;;;;7.43;2.60;;;;;;;8.90;100.00;97882.94;5033323;28;21241;-71
2022/04/07 10:01:27;;;;;;;9.20;2.73;;;;;;;8.80;100.00;97831.03;5030526;28;21225;-71
2022/04/07 10:03:52;;;;;;;5.93;2.27;;;;;;;9.24;100.00;97865.44;5022185;28;20188;-71
2022/04/07 10:06:19;;;;;;;7.97;2.30;;;;;;;9.28;100.00;97881.75;5044145;28;20442;-72
2022/04/07 10:08:49;;;;;;;6.83;2.77;;;;;;;9.45;100.00;97852.09;5036369;28;20214;-72
2022/04/07 10:11:16;;;;;;;9.30;2.40;;;;;;;9.09;100.00;97797.75;5033047;28;20525;-73
2022/04/07 10:13:46;;;;;;;13.17;1.77;;;;;;;9.27;100.00;97856.88;5036625;28;20453;-72
2022/04/07 10:16:16;;;;;;;8.32;1.67;;;;;;;9.40;100.00;97850.25;5031895;28;20481;-71
2022/04/07 10:18:52;;;;;;;11.90;3.00;;;;;;;9.43;100.00;97835.50;5030252;28;20673;-71
2022/04/07 10:21:35;;;;;;;6.80;2.07;;;;;;;9.48;100.00;97825.63;5032519;28;20437;-70
2022/04/07 10:24:19;;;;;;;3.37;1.17;;;;;;;9.61;100.00;97829.66;5033102;28;20426;-71
2022/04/07 10:26:47;;;;;;;17.77;2.40;;;;;;;9.56;100.00;97835.00;5033303;28;20437;-71
2022/04/07 10:29:22;;;;;;;5.13;1.33;;;;;;;9.58;100.00;97832.88;5030711;28;20492;-71
2022/04/07 10:32:13;;;;;;;6.07;1.30;;;;;;;9.68;100.00;97826.72;5028479;28;20458;-71
2022/04/07 10:34:42;;;;;;;28.98;5.05;;;;;;;9.62;100.00;97825.13;5023103;28;20543;-72
2022/04/07 10:37:09;;;;;;;18.10;2.33;;;;;;;8.72;100.00;97799.47;5027989;28;20187;-72
2022/04/07 10:39:39;;;;;;;4.23;1.40;;;;;;;8.67;100.00;97839.53;5029114;28;20466;-71
2022/04/07 10:42:05;;;;;;;14.83;1.40;;;;;;;8.22;100.00;97882.75;5028076;28;20442;-71
2022/04/07 10:44:33;;;;;;;4.40;1.27;;;;;;;7.97;100.00;97846.78;5026845;28;20863;-70
2022/04/07 10:47:03;;;;;;;2.67;1.00;;;;;;;8.17;100.00;97850.69;5041692;28;20481;-70
2022/04/07 10:49:30;;;;;;;1.87;1.00;;;;;;;8.09;100.00;97819.91;5029813;28;20488;-70
2022/04/07 10:52:02;;;;;;;5.43;1.30;;;;;;;8.03;100.00;97807.59;5029262;28;20476;-70
2022/04/07 10:54:30;;;;;;;2.60;1.20;;;;;;;8.49;100.00;97845.31;5028134;28;20538;-71
2022/04/07 10:57:01;;;;;;;5.77;1.73;;;;;;;8.05;100.00;97778.78;5029521;28;20455;-71
2022/04/07 10:59:28;;;;;;;9.97;1.80;;;;;;;8.53;100.00;97838.38;5026156;28;20457;-70
2022/04/07 11:02:09;;;;;;;7.40;2.67;;;;;;;8.76;100.00;97853.19;5026084;28;20451;-70
2022/04/07 11:04:39;;;;;;;9.37;1.70;;;;;;;8.86;100.00;97884.53;5017752;28;20932;-72
2022/04/07 11:07:16;;;;;;;5.10;1.30;;;;;;;8.34;100.00;97921.56;5030743;28;20778;-72
2022/04/07 11:10:03;;;;;;;30.10;2.37;;;;;;;8.10;100.00;97910.44;5025663;28;20459;-72
2022/04/07 11:12:42;;;;;;;7.73;1.50;;;;;;;7.96;100.00;97879.88;5030593;28;20980;-73
2022/04/07 11:15:26;;;;;;;1.93;0.90;;;;;;;8.05;100.00;97875.69;5026722;28;20464;-70
2022/04/07 11:17:53;;;;;;;5.33;1.73;;;;;;;8.00;100.00;97843.59;5028842;28;25112;-71
2022/04/07 11:20:25;;;;;;;4.87;1.20;;;;;;;8.02;100.00;97819.34;5023205;28;20498;-71
2022/04/07 11:23:09;;;;;;;4.70;1.30;;;;;;;8.23;100.00;97831.75;5028533;28;20477;-71
2022/04/07 11:25:37;;;;;;;5.07;1.37;;;;;;;8.43;100.00;97855.16;5028343;28;20247;-71
2022/04/07 11:28:27;;;;;;;8.50;1.67;;;;;;;8.46;100.00;97854.63;5028284;28;20442;-72
2022/04/07 11:31:00;;;;;;;5.07;1.70;;;;;;;8.46;100.00;97851.16;5025080;28;21176;-71
2022/04/07 11:33:27;;;;;;;6.73;1.77;;;;;;;8.60;100.00;97841.63;5027029;28;25070;-70
2022/04/07 11:36:06;;;;;;;5.80;1.73;;;;;;;8.68;100.00;97841.16;5028273;28;21223;-71
2022/04/07 11:38:46;;;;;;;6.50;1.73;;;;;;;8.63;100.00;97825.09;5026863;28;25188;-70
2022/04/07 11:41:13;;;;;;;7.43;2.20;;;;;;;8.93;100.00;97845.78;5027332;28;25092;-71
2022/04/07 11:43:46;;;;;;;31.10;2.60;;;;;;;9.03;100.00;97826.31;5030653;28;20438;-71
2022/04/07 11:46:23;;;;;;;5.20;2.10;;;;;;;9.13;100.00;97833.56;5025504;28;25102;-71
2022/04/07 11:48:50;;;;;;;19.30;2.95;;;;;;;9.06;100.00;97849.88;5028299;28;20524;-71